sensor_id;sensor_type;location;lat;lon;timestamp;P1;durP1;ratioP1;P2;durP2;ratioP2
53036;SDS011;38924;52.134;4.666;2022-09-28T00:01:07;29.33;;;27.38;;
53036;SDS011;38924;52.134;4.666;2022-09-28T00:03:34;32.17;;;30.13;;
53036;SDS011;38924;52.134;4.666;2022-09-28T00:06:03;29.10;;;26.67;;
53036;SDS011;38924;52.134;4.666;2022-09-28T00:08:29;30.92;;;29.08;;
53036;SDS011;38924;52.134;4.666;2022-09-28T00:10:55;26.95;;;25.20;;
53036;SDS011;38924;52.134;4.666;2022-09-28T00:13:21;30.73;;;28.73;;
53036;SDS011;38924;52.134;4.666;2022-09-28T00:15:57;30.70;;;28.60;;
53036;SDS011;38924;52.134;4.666;2022-09-28T00:18:22;29.52;;;27.73;;
53036;SDS011;38924;52.134;4.666;2022-09-28T00:20:57;30.35;;;28.23;;
53036;SDS011;38924;52.134;4.666;2022-09-28T00:23:23;30.45;;;28.52;;
53036;SDS011;38924;52.134;4.666;2022-09-28T00:25:51;28.20;;;26.05;;
53036;SDS011;38924;52.134;4.666;2022-09-28T00:28:17;31.33;;;29.42;;
53036;SDS011;38924;52.134;4.666;2022-09-28T00:30:43;28.73;;;26.52;;
53036;SDS011;38924;52.134;4.666;2022-09-28T00:33:08;31.02;;;29.00;;
53036;SDS011;38924;52.134;4.666;2022-09-28T00:35:34;28.98;;;27.00;;
53036;SDS011;38924;52.134;4.666;2022-09-28T00:38:00;30.30;;;28.45;;
53036;SDS011;38924;52.134;4.666;2022-09-28T00:40:26;28.75;;;26.95;;
53036;SDS011;38924;52.134;4.666;2022-09-28T00:42:52;26.63;;;24.70;;
53036;SDS011;38924;52.134;4.666;2022-09-28T00:45:18;28.80;;;26.60;;
53036;SDS011;38924;52.134;4.666;2022-09-28T00:47:53;27.83;;;26.08;;
53036;SDS011;38924;52.134;4.666;2022-09-28T00:50:33;25.27;;;23.42;;
53036;SDS011;38924;52.134;4.666;2022-09-28T00:53:14;27.40;;;25.63;;
53036;SDS011;38924;52.134;4.666;2022-09-28T00:55:47;28.15;;;26.25;;
53036;SDS011;38924;52.134;4.666;2022-09-28T00:58:17;30.35;;;28.35;;
53036;SDS011;38924;52.134;4.666;2022-09-28T01:00:43;27.23;;;25.42;;
53036;SDS011;38924;52.134;4.666;2022-09-28T01:03:09;29.85;;;27.63;;
53036;SDS011;38924;52.134;4.666;2022-09-28T01:05:35;29.95;;;28.25;;
53036;SDS011;38924;52.134;4.666;2022-09-28T01:08:01;26.88;;;24.75;;
53036;SDS011;38924;52.134;4.666;2022-09-28T01:10:28;30.15;;;28.38;;
53036;SDS011;38924;52.134;4.666;2022-09-28T01:12:55;28.55;;;26.60;;
53036;SDS011;38924;52.134;4.666;2022-09-28T01:15:21;26.40;;;24.80;;
53036;SDS011;38924;52.134;4.666;2022-09-28T01:28:20;28.80;;;27.00;;
53036;SDS011;38924;52.134;4.666;2022-09-28T01:30:48;28.23;;;26.30;;
53036;SDS011;38924;52.134;4.666;2022-09-28T01:33:25;31.08;;;29.15;;
53036;SDS011;38924;52.134;4.666;2022-09-28T01:35:54;26.58;;;24.80;;
53036;SDS011;38924;52.134;4.666;2022-09-28T01:38:24;28.92;;;27.13;;
53036;SDS011;38924;52.134;4.666;2022-09-28T01:40:54;31.27;;;29.48;;
53036;SDS011;38924;52.134;4.666;2022-09-28T01:43:25;27.75;;;25.85;;
53036;SDS011;38924;52.134;4.666;2022-09-28T01:46:01;27.13;;;25.50;;
53036;SDS011;38924;52.134;4.666;2022-09-28T01:48:34;31.55;;;29.60;;
53036;SDS011;38924;52.134;4.666;2022-09-28T01:51:02;26.33;;;24.85;;
53036;SDS011;38924;52.134;4.666;2022-09-28T01:55:58;30.55;;;28.75;;
53036;SDS011;38924;52.134;4.666;2022-09-28T01:58:38;28.38;;;26.73;;
53036;SDS011;38924;52.134;4.666;2022-09-28T02:01:09;28.58;;;26.95;;
53036;SDS011;38924;52.134;4.666;2022-09-28T02:03:45;25.48;;;23.75;;
53036;SDS011;38924;52.134;4.666;2022-09-28T02:06:17;27.25;;;25.42;;
53036;SDS011;38924;52.134;4.666;2022-09-28T02:08:48;28.20;;;26.48;;
53036;SDS011;38924;52.134;4.666;2022-09-28T02:11:18;28.67;;;26.92;;
53036;SDS011;38924;52.134;4.666;2022-09-28T02:13:55;25.38;;;23.83;;
53036;SDS011;38924;52.134;4.666;2022-09-28T02:19:01;27.00;;;25.15;;
53036;SDS011;38924;52.134;4.666;2022-09-28T02:21:34;27.75;;;25.92;;
53036;SDS011;38924;52.134;4.666;2022-09-28T02:24:09;30.42;;;28.42;;
53036;SDS011;38924;52.134;4.666;2022-09-28T02:26:38;29.63;;;27.95;;
53036;SDS011;38924;52.134;4.666;2022-09-28T02:29:05;31.02;;;29.05;;
53036;SDS011;38924;52.134;4.666;2022-09-28T02:31:32;31.50;;;29.33;;
53036;SDS011;38924;52.134;4.666;2022-09-28T02:33:58;26.55;;;24.98;;
53036;SDS011;38924;52.134;4.666;2022-09-28T02:36:24;31.08;;;28.88;;
53036;SDS011;38924;52.134;4.666;2022-09-28T02:38:51;27.10;;;25.60;;
53036;SDS011;38924;52.134;4.666;2022-09-28T02:41:25;29.48;;;27.63;;
53036;SDS011;38924;52.134;4.666;2022-09-28T02:43:56;30.05;;;28.23;;
53036;SDS011;38924;52.134;4.666;2022-09-28T02:46:31;29.17;;;27.48;;
53036;SDS011;38924;52.134;4.666;2022-09-28T02:54:35;25.73;;;24.08;;
53036;SDS011;38924;52.134;4.666;2022-09-28T02:57:09;27.88;;;26.30;;
53036;SDS011;38924;52.134;4.666;2022-09-28T02:59:41;27.55;;;25.95;;
53036;SDS011;38924;52.134;4.666;2022-09-28T03:02:17;27.63;;;25.93;;
53036;SDS011;38924;52.134;4.666;2022-09-28T03:07:36;48.25;;;38.97;;
53036;SDS011;38924;52.134;4.666;2022-09-28T03:10:14;24.80;;;23.17;;
53036;SDS011;38924;52.134;4.666;2022-09-28T03:12:42;27.45;;;25.85;;
53036;SDS011;38924;52.134;4.666;2022-09-28T03:17:35;26.60;;;25.10;;
53036;SDS011;38924;52.134;4.666;2022-09-28T03:20:02;27.42;;;25.83;;
53036;SDS011;38924;52.134;4.666;2022-09-28T03:22:28;28.23;;;26.60;;
53036;SDS011;38924;52.134;4.666;2022-09-28T03:24:54;38.53;;;35.13;;
53036;SDS011;38924;52.134;4.666;2022-09-28T03:27:23;26.60;;;25.00;;
53036;SDS011;38924;52.134;4.666;2022-09-28T03:29:48;30.15;;;28.35;;
53036;SDS011;38924;52.134;4.666;2022-09-28T03:32:14;30.15;;;28.27;;
53036;SDS011;38924;52.134;4.666;2022-09-28T03:34:40;29.92;;;27.92;;
53036;SDS011;38924;52.134;4.666;2022-09-28T03:37:06;33.53;;;31.65;;
53036;SDS011;38924;52.134;4.666;2022-09-28T03:39:32;28.52;;;27.00;;
53036;SDS011;38924;52.134;4.666;2022-09-28T03:41:59;26.40;;;24.67;;
53036;SDS011;38924;52.134;4.666;2022-09-28T03:44:25;30.05;;;28.27;;
53036;SDS011;38924;52.134;4.666;2022-09-28T03:46:50;70.53;;;57.70;;
53036;SDS011;38924;52.134;4.666;2022-09-28T03:49:16;31.58;;;29.48;;
53036;SDS011;38924;52.134;4.666;2022-09-28T03:51:42;62.88;;;56.88;;
53036;SDS011;38924;52.134;4.666;2022-09-28T03:54:07;38.08;;;35.30;;
53036;SDS011;38924;52.134;4.666;2022-09-28T03:56:33;30.98;;;29.20;;
53036;SDS011;38924;52.134;4.666;2022-09-28T03:59:02;33.50;;;31.58;;
53036;SDS011;38924;52.134;4.666;2022-09-28T04:01:28;36.47;;;34.00;;
53036;SDS011;38924;52.134;4.666;2022-09-28T04:03:54;31.05;;;29.25;;
53036;SDS011;38924;52.134;4.666;2022-09-28T04:06:24;30.55;;;28.75;;
53036;SDS011;38924;52.134;4.666;2022-09-28T04:08:50;33.63;;;31.73;;
53036;SDS011;38924;52.134;4.666;2022-09-28T04:11:16;30.65;;;28.73;;
53036;SDS011;38924;52.134;4.666;2022-09-28T04:13:42;32.03;;;30.13;;
53036;SDS011;38924;52.134;4.666;2022-09-28T04:16:11;34.78;;;32.17;;
53036;SDS011;38924;52.134;4.666;2022-09-28T04:18:37;30.77;;;28.92;;
53036;SDS011;38924;52.134;4.666;2022-09-28T04:21:09;29.85;;;27.95;;
53036;SDS011;38924;52.134;4.666;2022-09-28T04:23:59;28.52;;;26.77;;
53036;SDS011;38924;52.134;4.666;2022-09-28T04:26:25;27.88;;;26.27;;
53036;SDS011;38924;52.134;4.666;2022-09-28T04:28:51;29.45;;;27.85;;
53036;SDS011;38924;52.134;4.666;2022-09-28T04:31:40;26.27;;;24.75;;
53036;SDS011;38924;52.134;4.666;2022-09-28T04:34:06;33.25;;;31.23;;
53036;SDS011;38924;52.134;4.666;2022-09-28T04:36:34;28.17;;;26.48;;
53036;SDS011;38924;52.134;4.666;2022-09-28T04:38:59;28.23;;;26.67;;
53036;SDS011;38924;52.134;4.666;2022-09-28T04:41:26;28.60;;;26.75;;
53036;SDS011;38924;52.134;4.666;2022-09-28T04:43:52;27.70;;;26.17;;
53036;SDS011;38924;52.134;4.666;2022-09-28T04:46:18;25.05;;;23.52;;
53036;SDS011;38924;52.134;4.666;2022-09-28T04:49:08;29.90;;;28.15;;
53036;SDS011;38924;52.134;4.666;2022-09-28T04:51:43;27.35;;;25.63;;
53036;SDS011;38924;52.134;4.666;2022-09-28T04:54:08;27.45;;;25.80;;
53036;SDS011;38924;52.134;4.666;2022-09-28T04:56:34;61.63;;;55.70;;
53036;SDS011;38924;52.134;4.666;2022-09-28T04:58:59;38.78;;;35.85;;
53036;SDS011;38924;52.134;4.666;2022-09-28T05:01:26;28.15;;;26.23;;
53036;SDS011;38924;52.134;4.666;2022-09-28T05:04:10;29.35;;;27.30;;
53036;SDS011;38924;52.134;4.666;2022-09-28T05:06:38;26.13;;;24.23;;
53036;SDS011;38924;52.134;4.666;2022-09-28T05:09:05;33.60;;;31.48;;
53036;SDS011;38924;52.134;4.666;2022-09-28T05:11:32;32.83;;;30.80;;
53036;SDS011;38924;52.134;4.666;2022-09-28T05:13:58;30.90;;;28.80;;
53036;SDS011;38924;52.134;4.666;2022-09-28T05:16:23;29.17;;;27.55;;
53036;SDS011;38924;52.134;4.666;2022-09-28T05:19:09;32.63;;;30.63;;
53036;SDS011;38924;52.134;4.666;2022-09-28T05:21:34;29.40;;;27.48;;
53036;SDS011;38924;52.134;4.666;2022-09-28T05:24:01;32.72;;;30.17;;
53036;SDS011;38924;52.134;4.666;2022-09-28T05:26:35;28.15;;;26.35;;
53036;SDS011;38924;52.134;4.666;2022-09-28T05:29:01;28.13;;;26.25;;
53036;SDS011;38924;52.134;4.666;2022-09-28T05:31:45;30.50;;;28.40;;
53036;SDS011;38924;52.134;4.666;2022-09-28T05:34:34;30.55;;;28.60;;
53036;SDS011;38924;52.134;4.666;2022-09-28T05:36:59;30.05;;;28.35;;
53036;SDS011;38924;52.134;4.666;2022-09-28T05:39:25;29.08;;;27.33;;
53036;SDS011;38924;52.134;4.666;2022-09-28T05:41:51;28.27;;;26.50;;
53036;SDS011;38924;52.134;4.666;2022-09-28T05:44:16;31.60;;;29.45;;
53036;SDS011;38924;52.134;4.666;2022-09-28T05:46:42;27.58;;;25.95;;
53036;SDS011;38924;52.134;4.666;2022-09-28T05:49:09;29.17;;;27.08;;
53036;SDS011;38924;52.134;4.666;2022-09-28T05:51:35;31.10;;;28.63;;
53036;SDS011;38924;52.134;4.666;2022-09-28T05:54:01;28.92;;;27.05;;
53036;SDS011;38924;52.134;4.666;2022-09-28T05:56:28;29.85;;;27.65;;
53036;SDS011;38924;52.134;4.666;2022-09-28T05:58:54;29.20;;;27.30;;
53036;SDS011;38924;52.134;4.666;2022-09-28T06:01:22;29.77;;;27.85;;
53036;SDS011;38924;52.134;4.666;2022-09-28T06:03:48;29.77;;;27.70;;
53036;SDS011;38924;52.134;4.666;2022-09-28T06:06:14;31.40;;;29.05;;
53036;SDS011;38924;52.134;4.666;2022-09-28T06:08:41;31.45;;;29.45;;
53036;SDS011;38924;52.134;4.666;2022-09-28T06:11:30;27.88;;;26.13;;
53036;SDS011;38924;52.134;4.666;2022-09-28T06:13:57;33.95;;;31.70;;
53036;SDS011;38924;52.134;4.666;2022-09-28T06:16:26;31.83;;;29.95;;
53036;SDS011;38924;52.134;4.666;2022-09-28T06:18:51;31.05;;;29.05;;
53036;SDS011;38924;52.134;4.666;2022-09-28T06:21:24;30.42;;;28.63;;
53036;SDS011;38924;52.134;4.666;2022-09-28T06:23:50;33.05;;;30.83;;
53036;SDS011;38924;52.134;4.666;2022-09-28T06:26:17;32.72;;;30.67;;
53036;SDS011;38924;52.134;4.666;2022-09-28T06:28:43;36.78;;;34.47;;
53036;SDS011;38924;52.134;4.666;2022-09-28T06:31:09;41.55;;;38.78;;
53036;SDS011;38924;52.134;4.666;2022-09-28T06:33:42;47.17;;;43.85;;
53036;SDS011;38924;52.134;4.666;2022-09-28T06:36:08;49.30;;;45.80;;
53036;SDS011;38924;52.134;4.666;2022-09-28T06:38:34;39.17;;;36.67;;
53036;SDS011;38924;52.134;4.666;2022-09-28T06:41:02;47.08;;;44.25;;
53036;SDS011;38924;52.134;4.666;2022-09-28T06:43:27;48.47;;;45.55;;
53036;SDS011;38924;52.134;4.666;2022-09-28T06:46:12;44.78;;;42.15;;
53036;SDS011;38924;52.134;4.666;2022-09-28T06:48:53;41.47;;;38.95;;
53036;SDS011;38924;52.134;4.666;2022-09-28T06:51:38;43.13;;;40.60;;
53036;SDS011;38924;52.134;4.666;2022-09-28T06:54:30;44.65;;;41.97;;
53036;SDS011;38924;52.134;4.666;2022-09-28T06:57:01;40.47;;;38.17;;
53036;SDS011;38924;52.134;4.666;2022-09-28T06:59:27;43.13;;;40.45;;
53036;SDS011;38924;52.134;4.666;2022-09-28T07:01:54;37.83;;;35.63;;
53036;SDS011;38924;52.134;4.666;2022-09-28T07:04:52;36.60;;;34.28;;
53036;SDS011;38924;52.134;4.666;2022-09-28T07:07:37;33.70;;;31.63;;
53036;SDS011;38924;52.134;4.666;2022-09-28T07:10:30;35.85;;;33.70;;
53036;SDS011;38924;52.134;4.666;2022-09-28T07:13:31;36.95;;;34.75;;
53036;SDS011;38924;52.134;4.666;2022-09-28T07:16:04;39.85;;;37.20;;
53036;SDS011;38924;52.134;4.666;2022-09-28T07:18:30;42.67;;;40.05;;
53036;SDS011;38924;52.134;4.666;2022-09-28T07:20:56;40.28;;;37.97;;
53036;SDS011;38924;52.134;4.666;2022-09-28T07:23:22;45.58;;;42.97;;
53036;SDS011;38924;52.134;4.666;2022-09-28T07:26:06;37.50;;;35.25;;
53036;SDS011;38924;52.134;4.666;2022-09-28T07:28:50;46.72;;;43.92;;
53036;SDS011;38924;52.134;4.666;2022-09-28T07:31:35;46.70;;;43.97;;
53036;SDS011;38924;52.134;4.666;2022-09-28T07:34:23;51.55;;;48.47;;
53036;SDS011;38924;52.134;4.666;2022-09-28T07:36:59;53.22;;;50.20;;
53036;SDS011;38924;52.134;4.666;2022-09-28T07:39:27;55.22;;;51.83;;
53036;SDS011;38924;52.134;4.666;2022-09-28T07:41:53;57.53;;;54.13;;
53036;SDS011;38924;52.134;4.666;2022-09-28T07:44:21;58.70;;;55.25;;
53036;SDS011;38924;52.134;4.666;2022-09-28T07:46:51;63.40;;;59.72;;
53036;SDS011;38924;52.134;4.666;2022-09-28T07:49:22;64.47;;;60.78;;
53036;SDS011;38924;52.134;4.666;2022-09-28T07:52:11;63.58;;;59.67;;
53036;SDS011;38924;52.134;4.666;2022-09-28T07:54:56;57.72;;;54.03;;
53036;SDS011;38924;52.134;4.666;2022-09-28T07:58:00;56.60;;;53.28;;
53036;SDS011;38924;52.134;4.666;2022-09-28T08:00:47;57.25;;;53.95;;
53036;SDS011;38924;52.134;4.666;2022-09-28T08:03:14;60.97;;;57.47;;
53036;SDS011;38924;52.134;4.666;2022-09-28T08:05:40;55.60;;;52.20;;
53036;SDS011;38924;52.134;4.666;2022-09-28T08:08:07;57.60;;;54.38;;
53036;SDS011;38924;52.134;4.666;2022-09-28T08:10:33;62.03;;;58.35;;
53036;SDS011;38924;52.134;4.666;2022-09-28T08:13:19;62.20;;;58.38;;
53036;SDS011;38924;52.134;4.666;2022-09-28T08:16:09;62.08;;;58.28;;
53036;SDS011;38924;52.134;4.666;2022-09-28T08:18:55;63.35;;;59.75;;
53036;SDS011;38924;52.134;4.666;2022-09-28T08:21:21;64.78;;;60.95;;
53036;SDS011;38924;52.134;4.666;2022-09-28T08:24:06;61.30;;;57.78;;
53036;SDS011;38924;52.134;4.666;2022-09-28T08:26:32;59.05;;;55.72;;
53036;SDS011;38924;52.134;4.666;2022-09-28T08:28:58;70.85;;;66.65;;
53036;SDS011;38924;52.134;4.666;2022-09-28T08:31:59;63.17;;;59.50;;
53036;SDS011;38924;52.134;4.666;2022-09-28T08:34:37;58.35;;;54.70;;
53036;SDS011;38924;52.134;4.666;2022-09-28T08:37:15;74.45;;;70.18;;
53036;SDS011;38924;52.134;4.666;2022-09-28T08:40:17;63.22;;;59.63;;
53036;SDS011;38924;52.134;4.666;2022-09-28T08:43:03;81.63;;;76.90;;
53036;SDS011;38924;52.134;4.666;2022-09-28T08:45:49;73.28;;;69.07;;
53036;SDS011;38924;52.134;4.666;2022-09-28T08:48:34;86.45;;;81.38;;
53036;SDS011;38924;52.134;4.666;2022-09-28T08:54:21;85.88;;;80.70;;
53036;SDS011;38924;52.134;4.666;2022-09-28T08:56:53;115.45;;;108.55;;
53036;SDS011;38924;52.134;4.666;2022-09-28T08:59:20;108.72;;;102.28;;
53036;SDS011;38924;52.134;4.666;2022-09-28T09:02:00;109.10;;;102.32;;
53036;SDS011;38924;52.134;4.666;2022-09-28T09:04:28;110.07;;;103.60;;
53036;SDS011;38924;52.134;4.666;2022-09-28T09:18:41;52.13;;;49.03;;
53036;SDS011;38924;52.134;4.666;2022-09-28T09:23:55;51.25;;;48.30;;
53036;SDS011;38924;52.134;4.666;2022-09-28T09:37:54;56.22;;;52.85;;
53036;SDS011;38924;52.134;4.666;2022-09-28T09:46:48;73.80;;;69.47;;
53036;SDS011;38924;52.134;4.666;2022-09-28T09:49:37;86.90;;;81.72;;
53036;SDS011;38924;52.134;4.666;2022-09-28T09:57:32;104.38;;;98.28;;
53036;SDS011;38924;52.134;4.666;2022-09-28T10:00:09;131.00;;;123.13;;
53036;SDS011;38924;52.134;4.666;2022-09-28T10:02:59;122.70;;;115.50;;
53036;SDS011;38924;52.134;4.666;2022-09-28T10:05:36;140.75;;;132.40;;
53036;SDS011;38924;52.134;4.666;2022-09-28T10:08:07;133.30;;;125.45;;
53036;SDS011;38924;52.134;4.666;2022-09-28T10:10:38;140.70;;;132.13;;
53036;SDS011;38924;52.134;4.666;2022-09-28T10:13:07;132.70;;;124.68;;
53036;SDS011;38924;52.134;4.666;2022-09-28T10:15:40;140.27;;;132.10;;
53036;SDS011;38924;52.134;4.666;2022-09-28T10:18:12;127.32;;;119.68;;
53036;SDS011;38924;52.134;4.666;2022-09-28T10:20:57;109.60;;;103.22;;
53036;SDS011;38924;52.134;4.666;2022-09-28T10:23:37;133.75;;;125.78;;
53036;SDS011;38924;52.134;4.666;2022-09-28T10:26:06;167.23;;;157.20;;
53036;SDS011;38924;52.134;4.666;2022-09-28T10:28:56;134.75;;;126.82;;
53036;SDS011;38924;52.134;4.666;2022-09-28T10:31:34;147.75;;;138.90;;
53036;SDS011;38924;52.134;4.666;2022-09-28T10:34:05;139.57;;;131.38;;
53036;SDS011;38924;52.134;4.666;2022-09-28T10:36:32;135.70;;;127.63;;
53036;SDS011;38924;52.134;4.666;2022-09-28T10:39:20;157.85;;;148.45;;
53036;SDS011;38924;52.134;4.666;2022-09-28T10:41:48;119.00;;;112.00;;
53036;SDS011;38924;52.134;4.666;2022-09-28T10:44:16;145.02;;;136.32;;
53036;SDS011;38924;52.134;4.666;2022-09-28T10:47:09;107.80;;;101.43;;
53036;SDS011;38924;52.134;4.666;2022-09-28T10:49:43;116.45;;;109.28;;
53036;SDS011;38924;52.134;4.666;2022-09-28T10:57:46;112.97;;;106.40;;
53036;SDS011;38924;52.134;4.666;2022-09-28T11:00:31;103.57;;;96.90;;
53036;SDS011;38924;52.134;4.666;2022-09-28T11:03:18;78.53;;;74.07;;
53036;SDS011;38924;52.134;4.666;2022-09-28T11:05:52;69.30;;;65.15;;
53036;SDS011;38924;52.134;4.666;2022-09-28T11:08:20;64.43;;;60.70;;
53036;SDS011;38924;52.134;4.666;2022-09-28T11:10:48;59.42;;;56.03;;
53036;SDS011;38924;52.134;4.666;2022-09-28T11:13:26;62.75;;;58.88;;
53036;SDS011;38924;52.134;4.666;2022-09-28T11:15:59;58.50;;;54.97;;
53036;SDS011;38924;52.134;4.666;2022-09-28T11:18:31;57.70;;;54.42;;
53036;SDS011;38924;52.134;4.666;2022-09-28T11:21:12;59.95;;;56.45;;
53036;SDS011;38924;52.134;4.666;2022-09-28T11:23:41;57.92;;;54.47;;
53036;SDS011;38924;52.134;4.666;2022-09-28T11:26:19;53.47;;;50.22;;
53036;SDS011;38924;52.134;4.666;2022-09-28T11:28:45;54.95;;;51.47;;
53036;SDS011;38924;52.134;4.666;2022-09-28T11:31:26;53.17;;;50.05;;
53036;SDS011;38924;52.134;4.666;2022-09-28T11:34:11;57.88;;;54.40;;
53036;SDS011;38924;52.134;4.666;2022-09-28T11:37:30;58.13;;;54.58;;
53036;SDS011;38924;52.134;4.666;2022-09-28T11:45:03;56.75;;;52.97;;
53036;SDS011;38924;52.134;4.666;2022-09-28T11:50:07;74.50;;;69.95;;
53036;SDS011;38924;52.134;4.666;2022-09-28T11:52:42;73.50;;;68.65;;
53036;SDS011;38924;52.134;4.666;2022-09-28T11:55:20;85.32;;;79.95;;
53036;SDS011;38924;52.134;4.666;2022-09-28T11:57:48;78.35;;;73.65;;
53036;SDS011;38924;52.134;4.666;2022-09-28T12:00:18;92.20;;;86.53;;
53036;SDS011;38924;52.134;4.666;2022-09-28T12:02:50;102.82;;;96.82;;
53036;SDS011;38924;52.134;4.666;2022-09-28T12:05:21;107.38;;;101.00;;
53036;SDS011;38924;52.134;4.666;2022-09-28T12:07:54;126.90;;;119.30;;
53036;SDS011;38924;52.134;4.666;2022-09-28T12:10:50;96.80;;;91.22;;
53036;SDS011;38924;52.134;4.666;2022-09-28T12:13:32;107.75;;;101.30;;
53036;SDS011;38924;52.134;4.666;2022-09-28T12:15:59;116.60;;;109.68;;
53036;SDS011;38924;52.134;4.666;2022-09-28T12:23:39;139.98;;;131.77;;
53036;SDS011;38924;52.134;4.666;2022-09-28T12:26:20;117.57;;;110.47;;
53036;SDS011;38924;52.134;4.666;2022-09-28T12:28:48;116.65;;;109.53;;
53036;SDS011;38924;52.134;4.666;2022-09-28T12:31:16;126.30;;;118.38;;
53036;SDS011;38924;52.134;4.666;2022-09-28T12:33:45;127.57;;;120.25;;
53036;SDS011;38924;52.134;4.666;2022-09-28T12:36:16;99.63;;;93.85;;
53036;SDS011;38924;52.134;4.666;2022-09-28T12:38:59;84.55;;;79.28;;
53036;SDS011;38924;52.134;4.666;2022-09-28T12:41:37;98.05;;;92.20;;
53036;SDS011;38924;52.134;4.666;2022-09-28T12:44:19;102.60;;;96.38;;
53036;SDS011;38924;52.134;4.666;2022-09-28T12:49:25;107.85;;;101.22;;
53036;SDS011;38924;52.134;4.666;2022-09-28T12:51:55;96.78;;;91.05;;
53036;SDS011;38924;52.134;4.666;2022-09-28T13:00:12;78.57;;;73.93;;
53036;SDS011;38924;52.134;4.666;2022-09-28T13:02:42;68.18;;;64.10;;
53036;SDS011;38924;52.134;4.666;2022-09-28T13:08:06;62.17;;;58.58;;
53036;SDS011;38924;52.134;4.666;2022-09-28T13:18:27;60.95;;;57.22;;
53036;SDS011;38924;52.134;4.666;2022-09-28T13:23:43;54.17;;;50.90;;
53036;SDS011;38924;52.134;4.666;2022-09-28T13:26:51;60.13;;;56.45;;
53036;SDS011;38924;52.134;4.666;2022-09-28T13:28:59;53.38;;;50.15;;
53036;SDS011;38924;52.134;4.666;2022-09-28T13:31:27;54.00;;;50.83;;
53036;SDS011;38924;52.134;4.666;2022-09-28T13:33:57;54.33;;;51.03;;
53036;SDS011;38924;52.134;4.666;2022-09-28T13:38:52;57.05;;;53.60;;
53036;SDS011;38924;52.134;4.666;2022-09-28T13:41:20;55.08;;;51.97;;
53036;SDS011;38924;52.134;4.666;2022-09-28T13:49:59;51.33;;;48.03;;
53036;SDS011;38924;52.134;4.666;2022-09-28T13:52:05;45.88;;;43.17;;
53036;SDS011;38924;52.134;4.666;2022-09-28T13:54:41;44.70;;;41.85;;
53036;SDS011;38924;52.134;4.666;2022-09-28T13:57:14;43.00;;;40.53;;
53036;SDS011;38924;52.134;4.666;2022-09-28T14:02:25;47.60;;;44.72;;
53036;SDS011;38924;52.134;4.666;2022-09-28T14:04:56;47.20;;;44.53;;
53036;SDS011;38924;52.134;4.666;2022-09-28T14:07:24;46.70;;;43.95;;
53036;SDS011;38924;52.134;4.666;2022-09-28T14:15:05;43.85;;;41.08;;
53036;SDS011;38924;52.134;4.666;2022-09-28T14:17:52;40.22;;;37.45;;
53036;SDS011;38924;52.134;4.666;2022-09-28T14:20:23;41.33;;;38.95;;
53036;SDS011;38924;52.134;4.666;2022-09-28T14:25:42;48.13;;;45.17;;
53036;SDS011;38924;52.134;4.666;2022-09-28T14:36:03;42.70;;;39.88;;
53036;SDS011;38924;52.134;4.666;2022-09-28T14:48:49;47.75;;;44.85;;
53036;SDS011;38924;52.134;4.666;2022-09-28T14:51:42;44.10;;;41.28;;
53036;SDS011;38924;52.134;4.666;2022-09-28T14:56:38;47.85;;;44.88;;
53036;SDS011;38924;52.134;4.666;2022-09-28T14:59:05;44.38;;;41.67;;
53036;SDS011;38924;52.134;4.666;2022-09-28T15:01:32;42.75;;;39.55;;
53036;SDS011;38924;52.134;4.666;2022-09-28T15:04:00;46.33;;;43.58;;
53036;SDS011;38924;52.134;4.666;2022-09-28T15:06:44;43.08;;;40.58;;
53036;SDS011;38924;52.134;4.666;2022-09-28T15:09:30;49.65;;;46.78;;
53036;SDS011;38924;52.134;4.666;2022-09-28T15:11:59;46.25;;;43.45;;
53036;SDS011;38924;52.134;4.666;2022-09-28T15:14:26;43.53;;;40.90;;
53036;SDS011;38924;52.134;4.666;2022-09-28T15:16:53;41.22;;;38.25;;
53036;SDS011;38924;52.134;4.666;2022-09-28T15:19:22;47.22;;;44.25;;
53036;SDS011;38924;52.134;4.666;2022-09-28T15:21:53;45.05;;;42.28;;
53036;SDS011;38924;52.134;4.666;2022-09-28T15:24:23;44.53;;;41.80;;
53036;SDS011;38924;52.134;4.666;2022-09-28T15:26:49;41.47;;;38.67;;
53036;SDS011;38924;52.134;4.666;2022-09-28T15:29:15;47.78;;;44.95;;
53036;SDS011;38924;52.134;4.666;2022-09-28T15:31:41;44.78;;;42.05;;
53036;SDS011;38924;52.134;4.666;2022-09-28T15:34:11;46.72;;;43.92;;
53036;SDS011;38924;52.134;4.666;2022-09-28T15:37:08;45.00;;;42.38;;
53036;SDS011;38924;52.134;4.666;2022-09-28T15:39:36;41.13;;;38.72;;
53036;SDS011;38924;52.134;4.666;2022-09-28T15:42:02;39.30;;;36.72;;
53036;SDS011;38924;52.134;4.666;2022-09-28T15:44:33;46.42;;;43.70;;
53036;SDS011;38924;52.134;4.666;2022-09-28T15:47:04;42.83;;;40.25;;
53036;SDS011;38924;52.134;4.666;2022-09-28T15:49:34;45.38;;;42.47;;
53036;SDS011;38924;52.134;4.666;2022-09-28T15:52:01;36.60;;;34.42;;
53036;SDS011;38924;52.134;4.666;2022-09-28T15:54:36;43.38;;;40.80;;
53036;SDS011;38924;52.134;4.666;2022-09-28T15:57:03;40.95;;;38.45;;
53036;SDS011;38924;52.134;4.666;2022-09-28T15:59:29;44.85;;;42.25;;
53036;SDS011;38924;52.134;4.666;2022-09-28T16:04:37;39.55;;;37.22;;
53036;SDS011;38924;52.134;4.666;2022-09-28T16:12:22;43.97;;;41.15;;
53036;SDS011;38924;52.134;4.666;2022-09-28T16:14:50;42.85;;;40.10;;
53036;SDS011;38924;52.134;4.666;2022-09-28T16:17:22;45.28;;;42.55;;
53036;SDS011;38924;52.134;4.666;2022-09-28T16:19:54;45.00;;;42.13;;
53036;SDS011;38924;52.134;4.666;2022-09-28T16:22:19;40.03;;;37.50;;
53036;SDS011;38924;52.134;4.666;2022-09-28T16:24:52;39.63;;;36.70;;
53036;SDS011;38924;52.134;4.666;2022-09-28T16:27:28;42.15;;;39.50;;
53036;SDS011;38924;52.134;4.666;2022-09-28T16:32:49;40.95;;;38.50;;
53036;SDS011;38924;52.134;4.666;2022-09-28T16:35:16;40.03;;;37.53;;
53036;SDS011;38924;52.134;4.666;2022-09-28T16:37:47;38.63;;;36.15;;
53036;SDS011;38924;52.134;4.666;2022-09-28T16:40:13;43.83;;;41.00;;
53036;SDS011;38924;52.134;4.666;2022-09-28T16:42:39;59.63;;;54.30;;
53036;SDS011;38924;52.134;4.666;2022-09-28T16:45:08;46.92;;;44.08;;
53036;SDS011;38924;52.134;4.666;2022-09-28T16:47:35;38.50;;;36.20;;
53036;SDS011;38924;52.134;4.666;2022-09-28T16:50:04;39.75;;;37.35;;
53036;SDS011;38924;52.134;4.666;2022-09-28T16:52:33;42.50;;;40.00;;
53036;SDS011;38924;52.134;4.666;2022-09-28T16:55:20;43.53;;;40.78;;
53036;SDS011;38924;52.134;4.666;2022-09-28T16:57:46;44.08;;;41.35;;
53036;SDS011;38924;52.134;4.666;2022-09-28T17:00:16;44.28;;;41.70;;
53036;SDS011;38924;52.134;4.666;2022-09-28T17:02:44;42.50;;;39.95;;
53036;SDS011;38924;52.134;4.666;2022-09-28T17:05:11;35.83;;;33.72;;
53036;SDS011;38924;52.134;4.666;2022-09-28T17:07:38;43.55;;;40.10;;
53036;SDS011;38924;52.134;4.666;2022-09-28T17:10:28;44.70;;;41.80;;
53036;SDS011;38924;52.134;4.666;2022-09-28T17:12:50;41.05;;;38.33;;
53036;SDS011;38924;52.134;4.666;2022-09-28T17:15:15;54.97;;;50.70;;
53036;SDS011;38924;52.134;4.666;2022-09-28T17:17:44;43.33;;;40.38;;
53036;SDS011;38924;52.134;4.666;2022-09-28T17:20:15;46.22;;;43.13;;
53036;SDS011;38924;52.134;4.666;2022-09-28T17:22:41;45.38;;;42.63;;
53036;SDS011;38924;52.134;4.666;2022-09-28T17:25:10;44.35;;;41.75;;